createdAt,value
2017-05-14T00:00:55.070Z,18.11
2017-05-14T00:03:22.623Z,17.89
2017-05-14T00:05:50.132Z,17.81
2017-05-14T00:08:18.050Z,17.75
2017-05-14T00:10:45.573Z,17.68
2017-05-14T00:13:13.096Z,17.59
2017-05-14T00:15:40.693Z,17.59
2017-05-14T00:18:08.228Z,17.57
2017-05-14T00:20:35.911Z,17.56
2017-05-14T00:23:03.446Z,17.66
2017-05-14T00:25:30.973Z,17.58
2017-05-14T00:27:58.535Z,17.63
2017-05-14T00:30:26.108Z,17.52
2017-05-14T00:32:53.712Z,17.31
2017-05-14T00:35:21.227Z,17.31
2017-05-14T00:37:48.813Z,17.31
2017-05-14T00:40:16.323Z,17.30
2017-05-14T00:42:44.086Z,17.43
2017-05-14T00:45:11.604Z,17.46
2017-05-14T00:47:39.127Z,17.31
2017-05-14T00:50:06.687Z,17.22
2017-05-14T00:52:34.203Z,17.35
2017-05-14T00:55:02.004Z,17.41
2017-05-14T00:57:29.541Z,17.43
2017-05-14T00:59:57.071Z,17.30
2017-05-14T01:02:24.683Z,17.39
2017-05-14T01:04:52.251Z,17.39
2017-05-14T01:07:19.968Z,17.42
2017-05-14T01:09:47.544Z,17.33
2017-05-14T01:12:15.110Z,17.39
2017-05-14T01:14:42.688Z,17.44
2017-05-14T01:17:10.217Z,17.17
2017-05-14T01:19:37.776Z,17.07
2017-05-14T01:22:05.293Z,16.84
2017-05-14T01:24:32.977Z,16.68
2017-05-14T01:27:00.539Z,16.73
2017-05-14T01:29:28.054Z,16.80
2017-05-14T01:31:55.873Z,16.76
2017-05-14T01:34:23.387Z,16.52
2017-05-14T01:36:50.913Z,16.38
2017-05-14T01:39:18.644Z,16.28
2017-05-14T01:41:46.160Z,16.19
2017-05-14T01:44:13.692Z,16.13
2017-05-14T01:46:41.267Z,16.07
2017-05-14T01:49:08.819Z,16.17
2017-05-14T01:51:36.423Z,16.19
2017-05-14T01:54:03.976Z,16.55
2017-05-14T01:56:31.590Z,16.16
2017-05-14T01:58:59.120Z,16.05
2017-05-14T02:01:26.866Z,15.79
2017-05-14T02:03:54.392Z,15.68
2017-05-14T02:06:21.923Z,15.48
2017-05-14T02:08:49.485Z,15.39
2017-05-14T02:11:17.132Z,15.46
2017-05-14T02:13:44.790Z,15.70
2017-05-14T02:16:12.410Z,15.87
2017-05-14T02:18:40.191Z,15.95
2017-05-14T02:21:07.712Z,16.02
2017-05-14T02:23:35.231Z,15.92
2017-05-14T02:26:02.779Z,16.07
2017-05-14T02:28:30.296Z,15.62
2017-05-14T02:30:57.961Z,15.38
2017-05-14T02:33:25.503Z,15.55
2017-05-14T02:35:53.028Z,15.42
2017-05-14T02:38:20.590Z,15.18
2017-05-14T02:40:48.105Z,15.08
2017-05-14T02:43:15.674Z,15.09
2017-05-14T02:45:43.196Z,15.02
2017-05-14T02:48:10.900Z,15.08
2017-05-14T02:50:38.499Z,14.90
2017-05-14T02:53:06.032Z,15.02
2017-05-14T02:55:33.627Z,14.87
2017-05-14T02:58:01.196Z,14.86
2017-05-14T03:00:29.058Z,14.96
2017-05-14T03:02:56.570Z,14.88
2017-05-14T03:05:24.112Z,14.97
2017-05-14T03:07:51.730Z,14.86
2017-05-14T03:10:19.263Z,14.74
2017-05-14T03:12:46.832Z,15.03
2017-05-14T03:15:14.334Z,15.04
2017-05-14T03:17:41.994Z,14.96
2017-05-14T03:20:09.515Z,15.11
2017-05-14T03:22:37.044Z,15.23
2017-05-14T03:25:04.598Z,15.32
2017-05-14T03:27:32.106Z,15.17
2017-05-14T03:29:59.664Z,14.75
2017-05-14T03:32:27.191Z,14.49
2017-05-14T03:34:55.163Z,14.68
2017-05-14T03:37:22.751Z,14.45
2017-05-14T03:39:50.328Z,14.28
2017-05-14T03:42:18.023Z,14.28
2017-05-14T03:44:45.523Z,14.37
2017-05-14T03:47:13.070Z,14.32
2017-05-14T03:49:40.582Z,14.14
2017-05-14T03:52:08.139Z,14.21
2017-05-14T03:54:35.655Z,14.18
2017-05-14T03:57:03.311Z,14.32
2017-05-14T03:59:30.837Z,14.28
2017-05-14T04:01:58.352Z,14.40
2017-05-14T04:04:25.903Z,14.46
2017-05-14T04:06:53.433Z,14.58
2017-05-14T04:09:21.414Z,14.77
2017-05-14T04:11:48.940Z,14.85
2017-05-14T04:14:16.451Z,14.77
2017-05-14T04:16:44.114Z,14.81
2017-05-14T04:19:11.643Z,14.97
2017-05-14T04:21:39.215Z,15.17
2017-05-14T04:24:06.838Z,15.08
2017-05-14T04:26:34.382Z,15.12
2017-05-14T04:29:01.896Z,14.98
2017-05-14T04:31:29.400Z,14.98
2017-05-14T04:33:56.948Z,15.05
2017-05-14T04:36:24.460Z,15.13
2017-05-14T04:38:52.018Z,15.22
2017-05-14T04:41:19.528Z,15.18
2017-05-14T04:43:47.299Z,15.25
2017-05-14T04:46:14.826Z,15.04
2017-05-14T04:48:42.351Z,15.05
2017-05-14T04:51:09.959Z,15.02
2017-05-14T04:53:37.566Z,15.26
2017-05-14T04:56:05.234Z,15.39
2017-05-14T04:58:32.792Z,15.53
2017-05-14T05:01:00.318Z,15.56
2017-05-14T05:03:27.928Z,15.69
2017-05-14T05:05:55.443Z,15.73
2017-05-14T05:08:22.991Z,15.72
2017-05-14T05:10:50.517Z,15.80
2017-05-14T05:13:18.078Z,15.85
2017-05-14T05:15:45.627Z,15.86
2017-05-14T05:18:13.339Z,15.97
2017-05-14T05:20:40.873Z,16.03
2017-05-14T05:23:08.403Z,16.10
2017-05-14T05:25:35.976Z,16.16
2017-05-14T05:28:03.499Z,16.22
2017-05-14T05:30:31.058Z,16.30
2017-05-14T05:32:58.584Z,16.31
2017-05-14T05:35:26.148Z,16.25
2017-05-14T05:37:53.671Z,16.29
2017-05-14T05:40:21.355Z,16.34
2017-05-14T05:42:48.892Z,16.31
2017-05-14T05:45:16.467Z,16.36
2017-05-14T05:47:44.024Z,16.37
2017-05-14T05:50:11.571Z,16.36
2017-05-14T05:52:39.790Z,16.37
2017-05-14T05:55:07.308Z,16.42
2017-05-14T05:57:34.868Z,16.40
2017-05-14T06:00:02.427Z,16.42
2017-05-14T06:02:30.320Z,16.49
2017-05-14T06:04:57.967Z,16.54
2017-05-14T06:07:25.536Z,16.57
2017-05-14T06:09:53.127Z,16.63
2017-05-14T06:12:20.775Z,16.63
2017-05-14T06:14:48.360Z,16.67
2017-05-14T06:17:15.916Z,16.70
2017-05-14T06:19:43.604Z,16.85
2017-05-14T06:22:11.147Z,17.00
2017-05-14T06:24:38.720Z,17.02
2017-05-14T06:27:06.259Z,16.96
2017-05-14T06:29:33.813Z,16.98
2017-05-14T06:32:01.347Z,16.99
2017-05-14T06:34:29.263Z,17.01
2017-05-14T06:36:56.822Z,17.03
2017-05-14T06:39:24.365Z,17.06
2017-05-14T06:41:51.918Z,17.13
2017-05-14T06:44:19.477Z,17.23
2017-05-14T06:46:47.040Z,17.31
2017-05-14T06:49:14.596Z,17.43
2017-05-14T06:51:42.225Z,17.38
2017-05-14T06:54:09.756Z,17.47
2017-05-14T06:56:37.343Z,17.48
2017-05-14T06:59:04.904Z,17.62
2017-05-14T07:01:32.439Z,17.80
2017-05-14T07:04:00.103Z,17.88
2017-05-14T07:06:27.618Z,17.89
2017-05-14T07:08:55.192Z,17.92
2017-05-14T07:11:22.724Z,18.04
2017-05-14T07:13:50.292Z,18.09
2017-05-14T07:16:17.886Z,18.18
2017-05-14T07:18:45.579Z,18.21
2017-05-14T07:21:13.164Z,18.25
2017-05-14T07:23:40.790Z,18.36
2017-05-14T07:26:08.410Z,18.47
2017-05-14T07:28:35.951Z,18.52
2017-05-14T07:31:03.599Z,18.60
2017-05-14T07:33:31.143Z,18.69
2017-05-14T07:35:58.756Z,18.74
2017-05-14T07:38:26.291Z,18.85
2017-05-14T07:40:54.907Z,18.91
2017-05-14T07:43:22.972Z,19.01
2017-05-14T07:45:50.488Z,18.99
2017-05-14T07:48:18.060Z,19.05
2017-05-14T07:50:45.645Z,19.23
2017-05-14T07:53:13.240Z,19.24
2017-05-14T07:55:42.994Z,19.38
2017-05-14T07:58:11.316Z,19.30
2017-05-14T08:00:38.911Z,19.29
2017-05-14T08:03:06.468Z,19.39
2017-05-14T08:05:34.108Z,19.31
2017-05-14T08:08:01.623Z,19.42
2017-05-14T08:10:29.600Z,19.37
2017-05-14T08:12:57.175Z,19.44
2017-05-14T08:15:26.542Z,19.40
2017-05-14T08:17:54.059Z,19.42
2017-05-14T08:20:22.894Z,19.30
2017-05-14T08:22:50.714Z,19.28
2017-05-14T08:25:18.245Z,19.30
2017-05-14T08:27:46.451Z,19.27
2017-05-14T08:30:14.312Z,19.35
2017-05-14T08:32:41.847Z,19.40
2017-05-14T08:35:09.410Z,19.43
2017-05-14T08:37:36.932Z,19.24
2017-05-14T08:40:04.487Z,19.14
2017-05-14T08:42:32.000Z,19.21
2017-05-14T08:44:59.542Z,19.19
2017-05-14T08:47:27.071Z,19.11
2017-05-14T08:49:54.614Z,19.14
2017-05-14T08:52:22.152Z,19.12
2017-05-14T08:54:49.811Z,19.02
2017-05-14T08:57:17.330Z,18.94
2017-05-14T08:59:44.851Z,19.07
2017-05-14T09:02:12.395Z,19.09
2017-05-14T09:04:39.959Z,19.06
2017-05-14T09:07:07.523Z,19.13
2017-05-14T09:09:35.037Z,19.06
2017-05-14T09:12:02.788Z,19.04
2017-05-14T09:14:30.307Z,18.97
2017-05-14T09:16:57.821Z,18.91
2017-05-14T09:19:25.433Z,19.01
2017-05-14T09:21:52.944Z,19.07
2017-05-14T09:24:20.527Z,19.18
2017-05-14T09:26:48.078Z,19.16
2017-05-14T09:29:15.767Z,19.26
2017-05-14T09:31:43.334Z,19.38
2017-05-14T09:34:10.900Z,19.55
2017-05-14T09:36:38.504Z,19.76
2017-05-14T09:39:06.103Z,19.95
2017-05-14T09:41:33.780Z,19.98
2017-05-14T09:44:01.302Z,19.80
2017-05-14T09:46:28.820Z,20.07
2017-05-14T09:48:56.424Z,20.07
2017-05-14T09:51:23.951Z,20.04
2017-05-14T09:53:51.684Z,20.27
2017-05-14T09:56:19.248Z,20.28
2017-05-14T09:58:46.794Z,20.31
2017-05-14T10:01:14.404Z,20.53
2017-05-14T10:03:41.929Z,20.57
2017-05-14T10:06:09.675Z,20.52
2017-05-14T10:08:37.187Z,20.57
2017-05-14T10:11:05.005Z,20.54
2017-05-14T10:13:32.604Z,20.63
2017-05-14T10:16:00.129Z,20.59
2017-05-14T10:18:27.827Z,20.66
2017-05-14T10:20:55.353Z,20.48
2017-05-14T10:23:22.876Z,20.49
2017-05-14T10:25:50.450Z,20.42
2017-05-14T10:28:17.985Z,20.48
2017-05-14T10:30:45.536Z,20.65
2017-05-14T10:33:13.057Z,20.56
2017-05-14T10:35:40.611Z,20.60
2017-05-14T10:38:08.201Z,20.76
2017-05-14T10:40:35.847Z,20.93
2017-05-14T10:43:03.831Z,20.93
2017-05-14T10:45:32.740Z,21.10
2017-05-14T10:48:00.313Z,21.42
2017-05-14T10:50:27.904Z,21.64
2017-05-14T10:52:55.485Z,21.75
2017-05-14T10:55:23.039Z,21.98
2017-05-14T10:57:50.747Z,21.68
2017-05-14T11:00:18.234Z,21.88
2017-05-14T11:02:45.786Z,21.82
2017-05-14T11:05:13.405Z,21.63
2017-05-14T11:07:40.997Z,21.46
2017-05-14T11:10:08.560Z,21.34
2017-05-14T11:12:36.080Z,21.13
2017-05-14T11:15:04.005Z,21.11
2017-05-14T11:17:31.639Z,21.03
2017-05-14T11:19:59.247Z,20.85
2017-05-14T11:22:26.838Z,20.90
2017-05-14T11:24:54.432Z,20.84
2017-05-14T11:27:22.160Z,20.80
2017-05-14T11:29:49.700Z,20.76
2017-05-14T11:32:17.340Z,21.13
2017-05-14T11:34:44.910Z,21.09
2017-05-14T11:37:12.452Z,21.41
2017-05-14T11:39:40.031Z,21.90
2017-05-14T11:42:07.567Z,22.16
2017-05-14T11:44:35.412Z,22.21
2017-05-14T11:47:02.948Z,22.13
2017-05-14T11:49:30.528Z,22.46
2017-05-14T11:51:58.100Z,23.11
2017-05-14T11:54:25.620Z,23.44
2017-05-14T11:56:53.143Z,23.44
2017-05-14T11:59:20.859Z,23.71
2017-05-14T12:01:48.376Z,23.44
2017-05-14T12:04:15.892Z,23.15
2017-05-14T12:06:43.460Z,23.12
2017-05-14T12:09:10.997Z,22.88
2017-05-14T12:11:38.679Z,22.78
2017-05-14T12:14:06.247Z,22.44
2017-05-14T12:16:33.727Z,22.32
2017-05-14T12:19:01.285Z,22.21
2017-05-14T12:21:28.767Z,22.16
2017-05-14T12:23:56.518Z,21.36
2017-05-14T12:26:24.199Z,21.15
2017-05-14T12:28:51.731Z,21.41
2017-05-14T12:31:19.361Z,21.62
2017-05-14T12:33:46.913Z,21.79
2017-05-14T12:36:14.605Z,21.95
2017-05-14T12:38:42.145Z,22.21
2017-05-14T12:41:09.713Z,22.28
2017-05-14T12:43:37.299Z,22.28
2017-05-14T12:46:04.840Z,22.08
2017-05-14T12:48:32.504Z,21.98
2017-05-14T12:51:00.027Z,21.91
2017-05-14T12:53:27.662Z,22.32
2017-05-14T12:55:55.305Z,22.91
2017-05-14T12:58:22.883Z,23.46
2017-05-14T13:00:50.656Z,23.37
2017-05-14T13:03:18.168Z,23.39
2017-05-14T13:05:45.688Z,23.35
2017-05-14T13:08:13.248Z,23.47
2017-05-14T13:10:40.759Z,23.34
2017-05-14T13:13:08.315Z,23.20
2017-05-14T13:15:35.873Z,23.13
2017-05-14T13:18:03.550Z,22.91
2017-05-14T13:20:31.071Z,22.87
2017-05-14T13:22:58.611Z,22.75
2017-05-14T13:25:26.195Z,22.58
2017-05-14T13:27:53.727Z,22.59
2017-05-14T13:30:21.400Z,22.45
2017-05-14T13:32:48.931Z,22.46
2017-05-14T13:35:16.460Z,22.44
2017-05-14T13:37:44.037Z,22.31
2017-05-14T13:40:11.591Z,22.29
2017-05-14T13:42:39.266Z,22.05
2017-05-14T13:45:06.876Z,21.80
2017-05-14T13:47:34.399Z,21.76
2017-05-14T13:50:02.052Z,21.76
2017-05-14T13:52:29.574Z,21.85
2017-05-14T13:54:57.291Z,21.68
2017-05-14T13:57:24.840Z,21.61
2017-05-14T13:59:52.524Z,21.50
2017-05-14T14:02:20.057Z,21.46
2017-05-14T14:04:47.639Z,21.58
2017-05-14T14:07:15.257Z,21.62
2017-05-14T14:09:42.798Z,21.52
2017-05-14T14:12:10.397Z,21.47
2017-05-14T14:14:37.919Z,21.59
2017-05-14T14:17:05.692Z,21.69
2017-05-14T14:19:33.275Z,21.94
2017-05-14T14:22:00.807Z,21.99
2017-05-14T14:24:28.401Z,22.09
2017-05-14T14:26:55.908Z,22.09
2017-05-14T14:29:23.635Z,21.91
2017-05-14T14:31:51.153Z,21.95
2017-05-14T14:34:18.692Z,21.67
2017-05-14T14:36:46.257Z,21.68
2017-05-14T14:39:13.795Z,21.66
2017-05-14T14:41:41.468Z,21.75
2017-05-14T14:44:08.979Z,21.68
2017-05-14T14:46:36.551Z,21.60
2017-05-14T14:49:04.175Z,21.70
2017-05-14T14:51:31.706Z,21.61
2017-05-14T14:53:59.352Z,21.65
2017-05-14T14:56:26.863Z,21.85
2017-05-14T14:58:54.908Z,21.91
2017-05-14T15:01:22.415Z,22.09
2017-05-14T15:03:49.957Z,21.72
2017-05-14T15:06:17.539Z,21.77
2017-05-14T15:08:45.071Z,21.77
2017-05-14T15:11:12.639Z,21.69
2017-05-14T15:13:40.171Z,21.84
2017-05-14T15:16:07.945Z,21.67
2017-05-14T15:18:35.463Z,21.19
2017-05-14T15:21:02.973Z,20.24
2017-05-14T15:23:30.636Z,19.99
2017-05-14T15:25:58.189Z,20.16
2017-05-14T15:28:25.735Z,20.41
2017-05-14T15:30:53.645Z,20.17
2017-05-14T15:33:21.170Z,20.21
2017-05-14T15:35:48.707Z,20.30
2017-05-14T15:38:16.255Z,20.24
2017-05-14T15:40:43.760Z,20.23
2017-05-14T15:43:11.834Z,19.99
2017-05-14T15:45:39.383Z,19.90
2017-05-14T15:48:06.924Z,19.76
2017-05-14T15:50:34.480Z,19.54
2017-05-14T15:53:02.033Z,19.59
2017-05-14T15:55:29.595Z,19.59
2017-05-14T15:57:57.177Z,19.61
2017-05-14T16:00:24.736Z,19.74
2017-05-14T16:02:52.398Z,19.70
2017-05-14T16:05:19.920Z,19.60
2017-05-14T16:07:47.467Z,19.57
2017-05-14T16:10:15.040Z,19.63
2017-05-14T16:12:42.598Z,19.78
2017-05-14T16:15:10.459Z,19.58
2017-05-14T16:17:37.973Z,19.47
2017-05-14T16:20:05.498Z,19.61
2017-05-14T16:22:33.053Z,19.70
2017-05-14T16:25:00.563Z,19.65
2017-05-14T16:27:28.341Z,19.65
2017-05-14T16:29:55.898Z,19.62
2017-05-14T16:32:23.403Z,19.68
2017-05-14T16:34:50.979Z,19.72
2017-05-14T16:37:18.521Z,19.58
2017-05-14T16:39:46.475Z,19.60
2017-05-14T16:42:14.002Z,19.65
2017-05-14T16:44:41.559Z,19.68
2017-05-14T16:47:09.139Z,19.72
2017-05-14T16:49:36.676Z,19.89
2017-05-14T16:52:04.273Z,20.16
2017-05-14T16:54:31.787Z,20.04
2017-05-14T16:56:59.351Z,20.15
2017-05-14T16:59:26.859Z,20.22
2017-05-14T17:01:54.610Z,20.14
2017-05-14T17:04:22.158Z,20.23
2017-05-14T17:06:49.716Z,20.42
2017-05-14T17:09:17.274Z,20.43
2017-05-14T17:11:44.792Z,20.29
2017-05-14T17:14:12.850Z,20.52
2017-05-14T17:16:40.450Z,20.94
2017-05-14T17:19:08.151Z,21.20
2017-05-14T17:21:35.697Z,20.98
2017-05-14T17:24:03.291Z,20.99
2017-05-14T17:26:30.915Z,21.19
2017-05-14T17:28:58.508Z,21.11
2017-05-14T17:31:26.207Z,20.89
2017-05-14T17:33:53.767Z,20.73
2017-05-14T17:36:21.355Z,20.79
2017-05-14T17:38:48.938Z,20.94
2017-05-14T17:41:16.460Z,20.81
2017-05-14T17:43:44.212Z,20.93
2017-05-14T17:46:11.763Z,21.02
2017-05-14T17:48:39.315Z,21.39
2017-05-14T17:51:06.963Z,21.54
2017-05-14T17:53:34.523Z,21.66
2017-05-14T17:56:02.192Z,21.65
2017-05-14T17:58:29.720Z,21.88
2017-05-14T18:00:57.276Z,22.35
2017-05-14T18:03:24.845Z,21.70
2017-05-14T18:05:52.361Z,21.46
2017-05-14T18:08:20.303Z,20.87
2017-05-14T18:10:47.900Z,20.60
2017-05-14T18:13:15.507Z,20.64
2017-05-14T18:15:43.089Z,20.58
2017-05-14T18:18:10.659Z,20.50
2017-05-14T18:20:38.381Z,20.56
2017-05-14T18:23:06.000Z,20.63
2017-05-14T18:25:33.536Z,20.52
2017-05-14T18:28:01.143Z,20.63
2017-05-14T18:30:28.741Z,20.54
2017-05-14T18:32:56.394Z,20.41
2017-05-14T18:35:24.013Z,20.36
2017-05-14T18:37:51.948Z,20.33
2017-05-14T18:40:19.570Z,20.39
2017-05-14T18:42:47.104Z,20.46
2017-05-14T18:45:14.664Z,20.36
2017-05-14T18:47:42.239Z,20.04
2017-05-14T18:50:09.846Z,20.10
2017-05-14T18:52:37.347Z,20.04
2017-05-14T18:55:05.100Z,20.19
2017-05-14T18:57:32.632Z,20.23
2017-05-14T19:00:00.207Z,20.15
2017-05-14T19:02:27.779Z,20.19
2017-05-14T19:04:59.765Z,20.18
2017-05-14T19:07:27.383Z,20.21
2017-05-14T19:09:54.915Z,20.18
2017-05-14T19:12:22.459Z,20.14
2017-05-14T19:14:50.436Z,20.19
2017-05-14T19:17:17.961Z,20.11
2017-05-14T19:19:45.517Z,20.11
2017-05-14T19:22:13.094Z,19.88
2017-05-14T19:24:40.834Z,19.77
2017-05-14T19:27:08.424Z,19.73
2017-05-14T19:29:35.982Z,19.65
2017-05-14T19:32:03.577Z,19.62
2017-05-14T19:34:31.142Z,19.55
2017-05-14T19:36:58.847Z,19.39
2017-05-14T19:39:26.365Z,19.28
2017-05-14T19:41:53.916Z,19.17
2017-05-14T19:44:21.560Z,19.08
2017-05-14T19:46:49.114Z,18.92
2017-05-14T19:49:16.685Z,18.82
2017-05-14T19:51:44.222Z,18.83
2017-05-14T19:54:12.053Z,18.21
2017-05-14T19:56:39.681Z,17.31
2017-05-14T19:59:07.205Z,17.05
2017-05-14T20:01:34.795Z,16.85
2017-05-14T20:04:02.376Z,16.76
2017-05-14T20:06:30.007Z,16.65
2017-05-14T20:08:57.591Z,16.48
2017-05-14T20:11:25.274Z,16.53
2017-05-14T20:13:52.811Z,16.56
2017-05-14T20:16:20.389Z,16.76
2017-05-14T20:18:48.144Z,16.95
2017-05-14T20:21:15.900Z,16.72
2017-05-14T20:23:43.455Z,16.78
2017-05-14T20:26:11.003Z,16.79
2017-05-14T20:28:38.854Z,16.83
2017-05-14T20:31:06.395Z,16.80
2017-05-14T20:33:33.919Z,16.52
2017-05-14T20:36:01.527Z,16.39
2017-05-14T20:38:29.062Z,16.44
2017-05-14T20:40:56.628Z,16.63
2017-05-14T20:43:24.184Z,16.52
2017-05-14T20:45:52.077Z,16.51
2017-05-14T20:48:19.608Z,16.47
2017-05-14T20:50:47.163Z,16.38
2017-05-14T20:53:14.736Z,16.43
2017-05-14T20:55:42.270Z,16.44
2017-05-14T20:58:09.936Z,16.48
2017-05-14T21:00:37.464Z,16.50
2017-05-14T21:03:04.989Z,16.48
2017-05-14T21:05:32.568Z,16.36
2017-05-14T21:08:00.110Z,16.30
2017-05-14T21:10:28.055Z,16.33
2017-05-14T21:12:55.591Z,16.21
2017-05-14T21:15:23.125Z,16.25
2017-05-14T21:17:50.683Z,16.29
2017-05-14T21:20:18.212Z,16.31
2017-05-14T21:22:45.900Z,16.20
2017-05-14T21:25:13.425Z,16.32
2017-05-14T21:27:40.956Z,16.48
2017-05-14T21:30:08.550Z,16.63
2017-05-14T21:32:36.121Z,16.54
2017-05-14T21:35:03.702Z,16.47
2017-05-14T21:37:31.243Z,16.35
2017-05-14T21:39:59.008Z,16.32
2017-05-14T21:42:26.543Z,16.32
2017-05-14T21:44:54.071Z,16.26
2017-05-14T21:47:21.651Z,16.31
2017-05-14T21:49:49.191Z,16.22
2017-05-14T21:52:16.940Z,16.34
2017-05-14T21:54:44.734Z,16.44
2017-05-14T21:57:12.239Z,16.55
2017-05-14T21:59:39.807Z,16.54
2017-05-14T22:02:07.397Z,16.53
2017-05-14T22:04:34.999Z,16.52
2017-05-14T22:07:02.550Z,16.25
2017-05-14T22:09:30.143Z,16.18
2017-05-14T22:11:57.671Z,16.11
2017-05-14T22:14:25.344Z,16.16
2017-05-14T22:16:52.916Z,16.19
2017-05-14T22:19:20.477Z,16.20
2017-05-14T22:21:48.093Z,16.37
2017-05-14T22:24:15.611Z,16.38
2017-05-14T22:26:43.577Z,16.32
2017-05-14T22:29:11.203Z,16.31
2017-05-14T22:31:38.749Z,16.22
2017-05-14T22:34:06.368Z,16.21
2017-05-14T22:36:33.906Z,16.34
2017-05-14T22:39:01.626Z,16.45
2017-05-14T22:41:29.159Z,16.52
2017-05-14T22:43:56.823Z,16.45
2017-05-14T22:46:24.372Z,16.38
2017-05-14T22:48:51.899Z,16.38
2017-05-14T22:51:19.472Z,16.14
2017-05-14T22:53:47.095Z,15.98
2017-05-14T22:56:14.860Z,16.00
2017-05-14T22:58:42.419Z,16.07
2017-05-14T23:01:09.964Z,16.14
2017-05-14T23:03:37.526Z,16.22
2017-05-14T23:06:05.054Z,16.26
2017-05-14T23:08:32.623Z,16.08
2017-05-14T23:11:00.161Z,16.13
2017-05-14T23:13:27.847Z,16.30
2017-05-14T23:15:55.364Z,16.37
2017-05-14T23:18:22.890Z,16.25
2017-05-14T23:20:50.460Z,16.20
2017-05-14T23:23:17.988Z,16.03
2017-05-14T23:25:45.817Z,15.81
2017-05-14T23:28:13.379Z,15.76
2017-05-14T23:30:40.911Z,15.70
2017-05-14T23:33:08.534Z,15.97
2017-05-14T23:35:36.066Z,16.05
2017-05-14T23:38:03.844Z,16.12
2017-05-14T23:40:31.382Z,16.19
2017-05-14T23:42:58.975Z,16.24
2017-05-14T23:45:26.650Z,16.12
2017-05-14T23:47:54.179Z,16.09
2017-05-14T23:50:21.774Z,16.13
2017-05-14T23:52:49.269Z,16.12
2017-05-14T23:55:17.006Z,15.90
2017-05-14T23:57:44.548Z,15.84
